Time;durP1;ratioP1;P1;durP2;ratioP2;P2;SDS_P1;SDS_P2;PMS_P1;PMS_P2;Temp;Humidity;BMP_temperature;BMP_pressure;BME280_temperature;BME280_humidity;BME280_pressure;Samples;Min_cycle;Max_cycle;Signal;HPM_P1;HPM_P2
2022/09/30 00:00:19;;;;;;;2.90;2.25;;;19.90;61.30;;;;;;5060753;28;20033;-19
2022/09/30 00:02:45;;;;;;;3.38;2.42;;;19.90;61.20;;;;;;5057967;28;20179;-19
2022/09/30 00:05:10;;;;;;;2.63;2.42;;;19.90;61.50;;;;;;5057230;28;20119;-19
2022/09/30 00:07:36;;;;;;;2.47;2.28;;;19.80;61.50;;;;;;5060619;28;20804;-19
2022/09/30 00:10:02;;;;;;;2.25;2.10;;;19.90;61.40;;;;;;5058542;28;20159;-20
2022/09/30 00:12:27;;;;;;;2.58;2.38;;;19.80;61.40;;;;;;5057260;28;20075;-19
2022/09/30 00:14:53;;;;;;;2.20;2.10;;;19.90;61.40;;;;;;5060763;28;20032;-19
2022/09/30 00:17:19;;;;;;;2.28;2.17;;;19.80;61.40;;;;;;5059439;28;20623;-19
2022/09/30 00:19:45;;;;;;;2.45;2.33;;;19.70;61.50;;;;;;5059794;28;21009;-19
2022/09/30 00:22:11;;;;;;;2.40;2.20;;;19.80;61.50;;;;;;5062289;28;20153;-19
2022/09/30 00:24:37;;;;;;;2.38;2.22;;;19.80;61.50;;;;;;5059044;28;20568;-19
2022/09/30 00:27:05;;;;;;;2.45;2.25;;;19.80;61.50;;;;;;5059872;28;20029;-31
2022/09/30 00:29:31;;;;;;;2.30;2.15;;;19.80;61.60;;;;;;5056877;28;20450;-14
2022/09/30 00:31:56;;;;;;;2.10;2.00;;;19.80;61.40;;;;;;5061426;28;20041;-19
2022/09/30 00:34:22;;;;;;;2.13;1.92;;;19.80;61.30;;;;;;5060137;28;20052;-13
2022/09/30 00:36:49;;;;;;;2.10;2.00;;;19.80;61.30;;;;;;5061755;28;20051;-14
2022/09/30 00:39:17;;;;;;;2.03;1.92;;;19.70;61.50;;;;;;5055786;28;20098;-14
2022/09/30 00:41:45;;;;;;;2.15;2.05;;;19.80;61.50;;;;;;5062961;28;20060;-14
2022/09/30 00:44:42;;;;;;;1.83;1.73;;;19.80;61.60;;;;;;5060102;28;20562;-13
2022/09/30 00:47:44;;;;;;;1.90;1.80;;;19.90;61.30;;;;;;5047775;28;20033;-14
2022/09/30 00:50:26;;;;;;;1.95;1.85;;;19.70;61.50;;;;;;5054017;28;20048;-14
2022/09/30 00:53:06;;;;;;;2.17;2.08;;;19.80;61.40;;;;;;5050328;28;20028;-20
2022/09/30 00:56:00;;;;;;;2.20;1.80;;;19.80;61.30;;;;;;5048567;28;20027;-14
2022/09/30 00:58:32;;;;;;;2.55;2.35;;;19.70;61.40;;;;;;5047572;28;20024;-14
2022/09/30 01:00:58;;;;;;;2.03;1.92;;;19.70;61.60;;;;;;5042510;28;20033;-16
2022/09/30 01:03:24;;;;;;;1.73;1.63;;;19.80;61.40;;;;;;5039546;28;20029;-14
2022/09/30 01:05:50;;;;;;;1.95;1.85;;;19.80;61.60;;;;;;5067160;28;20048;-15
2022/09/30 01:08:17;;;;;;;1.88;1.77;;;19.80;62.50;;;;;;5038092;28;20045;-14
2022/09/30 01:10:43;;;;;;;1.95;1.77;;;19.80;62.70;;;;;;5048791;28;20040;-13
2022/09/30 01:13:08;;;;;;;2.13;2.03;;;19.80;61.40;;;;;;5039950;28;20040;-14
2022/09/30 01:16:05;;;;;;;1.85;1.70;;;19.80;61.80;;;;;;5038935;28;20037;-14
2022/09/30 01:18:55;;;;;;;1.65;1.55;;;19.70;61.60;;;;;;5036774;28;20037;-15
2022/09/30 01:21:48;;;;;;;2.05;1.95;;;19.70;61.90;;;;;;5061839;28;20049;-14
2022/09/30 01:24:39;;;;;;;2.08;1.98;;;19.70;61.60;;;;;;5038441;28;20119;-14
2022/09/30 01:27:39;;;;;;;1.63;1.52;;;19.70;62.30;;;;;;5047604;28;20376;-14
2022/09/30 01:30:20;;;;;;;1.63;1.50;;;19.70;61.40;;;;;;5058500;28;20111;-24
2022/09/30 01:33:01;;;;;;;1.92;1.83;;;19.80;61.80;;;;;;5061555;28;20534;-14
2022/09/30 01:35:44;;;;;;;1.60;1.50;;;19.70;61.60;;;;;;5063602;28;20052;-13
2022/09/30 01:38:20;;;;;;;1.60;1.50;;;19.70;61.80;;;;;;5056578;28;20090;-14
2022/09/30 01:41:03;;;;;;;1.48;1.38;;;19.70;61.70;;;;;;5051478;28;20033;-14
2022/09/30 01:43:52;;;;;;;3.13;1.50;;;19.70;61.90;;;;;;5056111;28;20189;-14
2022/09/30 01:46:43;;;;;;;1.75;1.50;;;19.70;61.80;;;;;;5047508;28;20027;-13
2022/09/30 01:49:17;;;;;;;1.58;1.42;;;19.70;62.30;;;;;;5076912;28;20063;-14
2022/09/30 01:51:46;;;;;;;1.17;1.17;;;19.70;61.40;;;;;;5054703;28;20098;-14
2022/09/30 01:54:37;;;;;;;1.58;1.48;;;19.70;61.30;;;;;;5044023;28;20082;-14
2022/09/30 01:57:20;;;;;;;1.70;1.60;;;19.60;61.50;;;;;;5044402;28;20033;-15
2022/09/30 02:00:01;;;;;;;1.35;1.33;;;19.60;61.40;;;;;;5046194;28;20033;-14
2022/09/30 02:02:29;;;;;;;1.08;1.08;;;19.60;61.70;;;;;;5064370;28;20033;-15
2022/09/30 02:05:06;;;;;;;1.55;1.30;;;19.70;61.60;;;;;;5045762;28;20044;-14
2022/09/30 02:07:54;;;;;;;1.52;1.42;;;19.60;61.60;;;;;;5026058;28;20529;-13
2022/09/30 02:10:32;;;;;;;1.55;1.45;;;19.60;61.60;;;;;;5081264;28;20036;-14
2022/09/30 02:13:16;;;;;;;1.42;1.33;;;19.60;61.60;;;;;;5016535;28;20029;-13
2022/09/30 02:15:47;;;;;;;1.15;1.05;;;19.60;61.60;;;;;;5041973;28;20038;-14
2022/09/30 02:18:18;;;;;;;1.40;1.30;;;19.60;62.20;;;;;;5053958;28;20124;-16
2022/09/30 02:20:44;;;;;;;1.42;1.33;;;19.60;61.50;;;;;;5053578;28;20553;-14
2022/09/30 02:23:16;;;;;;;1.30;1.20;;;19.60;61.50;;;;;;5044828;28;20123;-14
2022/09/30 02:25:46;;;;;;;1.42;1.33;;;19.60;61.50;;;;;;5074677;28;20040;-13
2022/09/30 02:28:14;;;;;;;1.00;1.00;;;19.70;61.30;;;;;;5047820;28;20049;-15
2022/09/30 02:30:42;;;;;;;1.30;1.20;;;19.60;61.40;;;;;;5075295;28;20036;-14
2022/09/30 02:33:11;;;;;;;1.20;1.20;;;19.60;61.80;;;;;;5059081;28;20057;-13
2022/09/30 02:35:37;;;;;;;1.40;1.30;;;19.60;61.60;;;;;;5080754;28;20098;-14
2022/09/30 02:38:24;;;;;;;0.90;0.90;;;19.60;61.60;;;;;;5062374;28;20035;-13
2022/09/30 02:40:55;;;;;;;1.60;1.50;;;19.60;61.50;;;;;;5054738;28;20048;-14
2022/09/30 02:43:21;;;;;;;1.27;1.23;;;19.60;61.40;;;;;;5073863;28;20036;-13
2022/09/30 02:45:51;;;;;;;1.35;1.25;;;19.50;61.50;;;;;;5058910;28;20029;-13
2022/09/30 02:48:31;;;;;;;1.35;1.25;;;19.60;61.50;;;;;;5035440;28;20037;-13
2022/09/30 02:51:24;;;;;;;1.30;1.20;;;19.60;61.90;;;;;;5031036;28;20064;-14
2022/09/30 02:54:16;;;;;;;1.23;1.13;;;19.60;61.30;;;;;;5060624;28;20406;-13
2022/09/30 02:56:48;;;;;;;1.30;1.20;;;19.60;61.20;;;;;;5061750;28;20094;-14
2022/09/30 02:59:13;;;;;;;2.10;1.40;;;19.50;61.30;;;;;;5040583;28;20040;-24
2022/09/30 03:01:40;;;;;;;1.08;1.08;;;19.50;61.50;;;;;;5078718;28;20036;-14
2022/09/30 03:04:07;;;;;;;1.05;1.00;;;19.60;61.20;;;;;;5062488;28;20033;-13
2022/09/30 03:06:34;;;;;;;1.13;1.13;;;19.60;61.40;;;;;;5046043;28;20581;-14
2022/09/30 03:09:00;;;;;;;1.00;1.00;;;19.60;61.20;;;;;;5033167;28;20056;-15
2022/09/30 03:11:26;;;;;;;1.63;1.00;;;19.60;61.30;;;;;;5039882;28;20041;-13
2022/09/30 03:14:04;;;;;;;1.08;1.08;;;19.60;61.10;;;;;;5025559;28;20461;-16
2022/09/30 03:16:41;;;;;;;0.70;0.70;;;19.50;61.70;;;;;;5055309;28;20033;-14
2022/09/30 03:19:21;;;;;;;1.05;1.02;;;19.50;61.80;;;;;;5051191;28;20411;-14
2022/09/30 03:22:10;;;;;;;0.90;0.90;;;19.60;61.50;;;;;;5068708;28;20036;-13
2022/09/30 03:25:01;;;;;;;2.42;0.93;;;19.60;61.50;;;;;;5051945;28;20411;-14
2022/09/30 03:27:43;;;;;;;0.90;0.90;;;19.60;61.40;;;;;;5034140;28;20183;-14
2022/09/30 03:30:29;;;;;;;0.82;0.82;;;19.60;61.30;;;;;;5049841;28;20088;-14
2022/09/30 03:33:08;;;;;;;0.68;0.68;;;19.50;61.50;;;;;;5063473;28;20051;-14
2022/09/30 03:35:47;;;;;;;1.30;1.10;;;19.60;61.60;;;;;;5064262;28;20135;-14
2022/09/30 03:38:22;;;;;;;0.85;0.85;;;19.50;61.80;;;;;;5070028;28;20073;-25
2022/09/30 03:41:09;;;;;;;1.02;0.93;;;19.50;61.50;;;;;;5065540;28;20036;-14
2022/09/30 03:43:47;;;;;;;0.90;0.90;;;19.50;61.80;;;;;;5055472;28;20533;-15
2022/09/30 03:46:37;;;;;;;1.00;1.00;;;19.50;61.70;;;;;;5061138;28;20094;-17
2022/09/30 03:49:05;;;;;;;0.90;0.90;;;19.50;61.70;;;;;;5061868;28;20048;-16
2022/09/30 03:51:30;;;;;;;1.20;1.10;;;19.50;61.70;;;;;;5078133;28;21696;-14
2022/09/30 03:53:57;;;;;;;0.75;0.75;;;19.40;61.50;;;;;;5069176;28;20052;-14
2022/09/30 03:56:30;;;;;;;0.73;0.73;;;19.50;62.40;;;;;;5059841;28;20044;-14
2022/09/30 03:58:56;;;;;;;1.03;1.00;;;19.50;61.70;;;;;;5052488;28;20036;-13
2022/09/30 04:01:22;;;;;;;0.70;0.70;;;19.40;62.30;;;;;;5065543;28;20042;-14
2022/09/30 04:03:51;;;;;;;0.95;0.95;;;19.50;61.60;;;;;;5050136;28;20512;-14
2022/09/30 04:06:17;;;;;;;0.70;0.70;;;19.50;61.50;;;;;;5053498;28;20029;-14
2022/09/30 04:08:43;;;;;;;0.70;0.70;;;19.50;61.50;;;;;;5058688;28;20053;-14
2022/09/30 04:11:09;;;;;;;0.75;0.75;;;19.40;62.30;;;;;;5065202;28;20047;-18
2022/09/30 04:13:35;;;;;;;0.90;0.90;;;19.40;61.50;;;;;;5061216;28;20055;-14
2022/09/30 04:16:00;;;;;;;0.80;0.80;;;19.50;61.30;;;;;;5062120;28;20045;-14
2022/09/30 04:18:26;;;;;;;1.23;1.13;;;19.40;61.50;;;;;;5043654;28;20049;-14
2022/09/30 04:20:52;;;;;;;0.90;0.90;;;19.40;61.50;;;;;;5042597;28;20095;-16
2022/09/30 04:23:17;;;;;;;0.85;0.85;;;19.40;61.40;;;;;;5049242;28;20406;-14
2022/09/30 04:25:50;;;;;;;0.65;0.65;;;19.40;61.30;;;;;;5061781;28;20506;-14
2022/09/30 04:28:15;;;;;;;0.77;0.77;;;19.50;61.40;;;;;;5042614;28;20041;-14
2022/09/30 04:30:41;;;;;;;0.70;0.70;;;19.40;61.30;;;;;;5050416;28;20098;-14
2022/09/30 04:33:06;;;;;;;0.60;0.60;;;19.40;61.20;;;;;;5057848;28;20089;-14
2022/09/30 04:35:32;;;;;;;0.90;0.90;;;19.40;61.30;;;;;;5048736;28;20041;-14
2022/09/30 04:37:57;;;;;;;0.85;0.70;;;19.40;61.00;;;;;;5043057;28;20106;-14
2022/09/30 04:40:24;;;;;;;2.17;1.10;;;19.40;61.00;;;;;;5056135;28;20052;-15
2022/09/30 04:42:49;;;;;;;0.70;0.70;;;19.40;61.00;;;;;;5039823;28;20034;-20
2022/09/30 04:45:15;;;;;;;0.50;0.50;;;19.40;61.30;;;;;;5044475;28;20407;-14
2022/09/30 04:47:44;;;;;;;0.63;0.60;;;19.40;61.20;;;;;;5038896;28;20473;-14
2022/09/30 04:50:09;;;;;;;0.60;0.60;;;19.40;61.10;;;;;;5042558;28;20495;-14
2022/09/30 04:52:37;;;;;;;0.60;0.60;;;19.40;61.10;;;;;;5045453;28;20045;-13
2022/09/30 04:55:02;;;;;;;0.70;0.70;;;19.40;61.20;;;;;;5045566;28;20044;-15
2022/09/30 04:57:28;;;;;;;0.50;0.50;;;19.30;60.90;;;;;;5058152;28;20403;-14
2022/09/30 04:59:53;;;;;;;1.75;0.80;;;19.30;61.10;;;;;;5088150;28;20050;-13
2022/09/30 05:02:19;;;;;;;1.70;0.50;;;19.30;61.30;;;;;;5047537;28;20052;-13
2022/09/30 05:04:45;;;;;;;0.80;0.80;;;19.30;61.40;;;;;;5057207;28;20490;-14
2022/09/30 05:07:10;;;;;;;0.60;0.60;;;19.30;61.30;;;;;;5063777;28;20051;-15
2022/09/30 05:09:36;;;;;;;0.80;0.80;;;19.30;61.10;;;;;;5043745;28;20060;-14
2022/09/30 05:12:02;;;;;;;0.82;0.82;;;19.40;62.00;;;;;;5056380;28;20534;-14
2022/09/30 05:14:28;;;;;;;0.68;0.68;;;19.30;61.20;;;;;;5065349;28;20039;-13
2022/09/30 05:16:54;;;;;;;0.55;0.55;;;19.40;61.30;;;;;;5068063;28;20109;-13
2022/09/30 05:19:20;;;;;;;0.85;0.85;;;19.40;61.10;;;;;;5067178;28;20036;-13
2022/09/30 05:21:45;;;;;;;0.60;0.60;;;19.40;61.20;;;;;;5051333;28;20037;-14
2022/09/30 05:24:11;;;;;;;0.77;0.77;;;19.30;61.40;;;;;;5067503;28;20112;-15
2022/09/30 05:26:39;;;;;;;0.60;0.60;;;19.30;61.50;;;;;;5049441;28;20144;-13
2022/09/30 05:29:04;;;;;;;0.50;0.50;;;19.30;61.50;;;;;;5043198;28;20131;-16
2022/09/30 05:31:30;;;;;;;0.60;0.60;;;19.30;61.40;;;;;;5064696;28;20045;-18
2022/09/30 05:33:56;;;;;;;0.60;0.60;;;19.30;61.10;;;;;;5052581;28;20044;-14
2022/09/30 05:36:21;;;;;;;0.70;0.70;;;19.30;61.40;;;;;;5060631;28;20503;-14
2022/09/30 05:38:50;;;;;;;2.22;0.70;;;19.30;61.40;;;;;;5078797;28;20124;-14
2022/09/30 05:41:16;;;;;;;0.55;0.55;;;19.20;61.50;;;;;;5049606;28;20044;-13
2022/09/30 05:43:46;;;;;;;1.75;0.60;;;19.30;61.30;;;;;;5065942;28;20436;-15
2022/09/30 05:46:12;;;;;;;0.70;0.70;;;19.30;61.30;;;;;;5067776;28;20085;-18
2022/09/30 05:48:38;;;;;;;1.48;0.50;;;19.30;61.30;;;;;;5056307;28;20049;-14
2022/09/30 05:51:03;;;;;;;0.50;0.50;;;19.30;61.50;;;;;;5063285;28;20411;-14
2022/09/30 05:53:30;;;;;;;0.52;0.52;;;19.30;61.20;;;;;;5057834;28;20116;-14
2022/09/30 05:55:56;;;;;;;0.50;0.50;;;19.30;62.10;;;;;;5047704;28;20029;-13
2022/09/30 05:58:21;;;;;;;0.50;0.50;;;19.30;61.30;;;;;;5060569;28;20033;-14
2022/09/30 06:00:47;;;;;;;0.50;0.50;;;19.30;61.50;;;;;;5066732;28;20040;-14
2022/09/30 06:03:13;;;;;;;0.70;0.70;;;19.30;61.40;;;;;;5066459;28;20032;-13
2022/09/30 06:05:39;;;;;;;0.70;0.57;;;19.20;61.00;;;;;;5056645;28;20075;-14
2022/09/30 06:08:07;;;;;;;0.50;0.50;;;19.20;61.70;;;;;;4338082;28;10000762;-13
2022/09/30 06:10:33;;;;;;;0.60;0.60;;;19.30;60.50;;;;;;5058832;28;20037;-14
2022/09/30 06:13:01;;;;;;;0.40;0.40;;;19.30;62.00;;;;;;5040728;28;20064;-15
2022/09/30 06:15:27;;;;;;;0.43;0.43;;;19.30;61.00;;;;;;5036887;28;20053;-19
2022/09/30 06:17:53;;;;;;;0.43;0.43;;;19.30;60.90;;;;;;5056469;28;20101;-13
2022/09/30 06:20:18;;;;;;;0.40;0.40;;;19.30;61.10;;;;;;5051192;28;20059;-14
2022/09/30 06:22:44;;;;;;;0.40;0.40;;;19.30;61.30;;;;;;5047912;28;20103;-14
2022/09/30 06:25:10;;;;;;;0.45;0.45;;;19.30;60.60;;;;;;5038472;28;20530;-14
2022/09/30 06:27:38;;;;;;;0.63;0.63;;;19.20;60.70;;;;;;5041117;28;20118;-14
2022/09/30 06:30:05;;;;;;;0.60;0.60;;;19.30;61.30;;;;;;5068426;28;20043;-17
2022/09/30 06:32:30;;;;;;;0.80;0.60;;;19.30;60.70;;;;;;5045114;28;20037;-13
2022/09/30 06:34:56;;;;;;;0.60;0.50;;;19.30;61.10;;;;;;5051730;28;20051;-13
2022/09/30 06:37:22;;;;;;;0.60;0.60;;;19.30;61.20;;;;;;5063180;28;20048;-13
2022/09/30 06:39:49;;;;;;;0.40;0.40;;;19.30;61.20;;;;;;5062057;28;20106;-15
2022/09/30 06:42:15;;;;;;;0.55;0.50;;;19.30;60.90;;;;;;5064412;28;20052;-14
2022/09/30 06:44:41;;;;;;;0.70;0.47;;;19.30;61.10;;;;;;5063742;28;21114;-13
2022/09/30 06:47:07;;;;;;;0.50;0.50;;;19.20;60.80;;;;;;5064537;28;20036;-14
2022/09/30 06:49:33;;;;;;;0.63;0.63;;;19.20;61.30;;;;;;5063836;28;20047;-15
2022/09/30 06:51:59;;;;;;;3.03;0.60;;;19.30;60.90;;;;;;5066644;28;20028;-13
2022/09/30 06:54:26;;;;;;;0.50;0.50;;;19.30;61.40;;;;;;5065546;28;20119;-16
2022/09/30 06:56:56;;;;;;;0.55;0.52;;;19.30;60.90;;;;;;5064108;28;20055;-13
2022/09/30 06:59:22;;;;;;;0.43;0.43;;;19.20;60.80;;;;;;5062223;28;20553;-13
2022/09/30 07:01:48;;;;;;;0.40;0.40;;;19.30;61.00;;;;;;5065642;28;20753;-14
2022/09/30 07:04:13;;;;;;;3.03;0.65;;;19.30;60.90;;;;;;5063063;28;20131;-14
2022/09/30 07:06:40;;;;;;;0.50;0.50;;;19.30;60.80;;;;;;5080495;28;20410;-14
2022/09/30 07:09:06;;;;;;;0.40;0.40;;;19.30;60.70;;;;;;5064862;28;20067;-14
2022/09/30 07:11:31;;;;;;;0.57;0.50;;;19.30;60.70;;;;;;5064530;28;20028;-14
2022/09/30 07:13:57;;;;;;;0.63;0.63;;;19.30;60.90;;;;;;5062281;28;20837;-14
2022/09/30 07:16:24;;;;;;;0.43;0.40;;;19.30;61.30;;;;;;5065900;28;20044;-14
2022/09/30 07:18:50;;;;;;;0.50;0.50;;;19.30;60.90;;;;;;5063205;28;20033;-16
2022/09/30 07:21:16;;;;;;;0.43;0.40;;;19.30;60.70;;;;;;5065436;28;20052;-13
2022/09/30 07:23:46;;;;;;;0.47;0.47;;;19.30;61.50;;;;;;5064934;28;20040;-13
2022/09/30 07:26:11;;;;;;;0.30;0.30;;;19.30;61.00;;;;;;5059996;28;20056;-14
2022/09/30 07:28:38;;;;;;;0.50;0.50;;;19.30;61.00;;;;;;5042173;28;20104;-15
2022/09/30 07:31:10;;;;;;;0.40;0.40;;;19.30;60.80;;;;;;5056321;28;20044;-14
2022/09/30 07:33:37;;;;;;;1.40;0.50;;;19.30;61.10;;;;;;5063502;28;20079;-14
2022/09/30 07:36:07;;;;;;;0.40;0.40;;;19.30;61.70;;;;;;5067970;28;20402;-14
2022/09/30 07:38:34;;;;;;;0.38;0.30;;;19.30;60.90;;;;;;5055460;28;20060;-13
2022/09/30 07:41:03;;;;;;;0.30;0.30;;;19.40;61.30;;;;;;5044852;28;20496;-13
2022/09/30 07:43:33;;;;;;;0.50;0.40;;;19.40;61.10;;;;;;5063224;28;20044;-18
2022/09/30 07:46:03;;;;;;;0.35;0.35;;;19.50;61.00;;;;;;5047169;28;20037;-14
2022/09/30 07:48:49;;;;;;;0.40;0.40;;;19.40;60.70;;;;;;5061790;28;20119;-20
2022/09/30 07:51:19;;;;;;;0.30;0.30;;;19.30;60.50;;;;;;5059261;28;20037;-14
2022/09/30 07:53:46;;;;;;;0.40;0.40;;;19.30;60.50;;;;;;5062400;28;20055;-14
2022/09/30 07:56:12;;;;;;;0.75;0.50;;;19.30;61.40;;;;;;5063927;28;20048;-13
2022/09/30 07:58:38;;;;;;;0.30;0.30;;;19.40;61.20;;;;;;5058469;28;20032;-18
2022/09/30 08:01:05;;;;;;;0.30;0.30;;;19.40;61.10;;;;;;5051801;28;20044;-13
2022/09/30 08:03:32;;;;;;;0.30;0.30;;;19.40;61.40;;;;;;5042868;28;20041;-21
2022/09/30 08:06:03;;;;;;;0.57;0.40;;;19.40;60.90;;;;;;5084514;28;20118;-14
2022/09/30 08:08:29;;;;;;;0.50;0.50;;;19.50;60.80;;;;;;5063709;28;20407;-13
2022/09/30 08:10:58;;;;;;;0.30;0.30;;;19.50;60.50;;;;;;5056361;28;20521;-13
2022/09/30 08:13:24;;;;;;;0.95;0.40;;;19.50;60.50;;;;;;5053477;28;20102;-14
2022/09/30 08:15:49;;;;;;;0.40;0.40;;;19.40;60.70;;;;;;5062858;28;20044;-15
2022/09/30 08:18:15;;;;;;;0.65;0.28;;;19.50;60.60;;;;;;5063536;28;20086;-14
2022/09/30 08:20:40;;;;;;;0.52;0.45;;;19.50;60.40;;;;;;5062038;28;20754;-14
2022/09/30 08:23:06;;;;;;;1.08;0.50;;;19.40;60.50;;;;;;5047204;28;20037;-14
2022/09/30 08:25:31;;;;;;;0.50;0.25;;;19.40;60.60;;;;;;5043513;28;20036;-13
2022/09/30 08:27:57;;;;;;;0.30;0.30;;;19.40;60.50;;;;;;5041990;28;20128;-15
2022/09/30 08:30:22;;;;;;;0.40;0.30;;;19.50;60.50;;;;;;5049004;28;20032;-16
2022/09/30 08:32:48;;;;;;;0.40;0.40;;;19.50;60.30;;;;;;5063897;28;20075;-14
2022/09/30 08:35:14;;;;;;;0.50;0.45;;;19.60;60.70;;;;;;5043849;28;20499;-15
2022/09/30 08:37:39;;;;;;;3.50;0.20;;;19.60;59.80;;;;;;5048821;28;20044;-14
2022/09/30 08:40:05;;;;;;;0.70;0.40;;;19.50;59.90;;;;;;5060803;28;20040;-14
2022/09/30 08:42:41;;;;;;;0.95;0.65;;;19.50;59.80;;;;;;5061639;28;20048;-14
2022/09/30 08:45:29;;;;;;;1.10;0.47;;;19.50;59.70;;;;;;5062999;28;20041;-16
2022/09/30 08:47:55;;;;;;;0.40;0.40;;;19.50;59.80;;;;;;5040536;28;20048;-14
2022/09/30 08:50:29;;;;;;;1.52;0.57;;;19.60;59.80;;;;;;5050500;28;20049;-13
2022/09/30 08:53:09;;;;;;;1.17;0.60;;;19.60;59.60;;;;;;5041963;28;20033;-16
2022/09/30 08:55:44;;;;;;;0.60;0.60;;;19.60;59.00;;;;;;5063961;28;20044;-14
2022/09/30 08:58:43;;;;;;;1.75;0.90;;;19.60;58.70;;;;;;5055120;28;20046;-14
2022/09/30 09:01:34;;;;;;;0.80;0.80;;;19.40;58.70;;;;;;5041560;28;20040;-15
2022/09/30 09:04:01;;;;;;;2.00;1.00;;;19.40;58.30;;;;;;5032318;28;20037;-14
2022/09/30 09:06:41;;;;;;;1.90;1.13;;;19.40;58.20;;;;;;5048685;28;20123;-14
2022/09/30 09:09:19;;;;;;;0.73;0.70;;;19.40;58.20;;;;;;5030122;28;20136;-16
2022/09/30 09:11:59;;;;;;;1.00;0.70;;;19.40;58.30;;;;;;5034419;28;20044;-14
2022/09/30 09:14:45;;;;;;;0.77;0.68;;;19.30;58.40;;;;;;5033714;28;20168;-14
2022/09/30 09:17:14;;;;;;;1.38;0.68;;;19.40;58.60;;;;;;5027198;28;20094;-21
2022/09/30 09:19:46;;;;;;;0.70;0.70;;;19.30;58.50;;;;;;5046167;28;20052;-14
2022/09/30 09:22:11;;;;;;;0.50;0.50;;;19.30;58.70;;;;;;5061334;28;20040;-14
2022/09/30 09:24:45;;;;;;;0.70;0.60;;;19.40;58.70;;;;;;5043482;28;20045;-14
2022/09/30 09:27:52;;;;;;;0.60;0.50;;;19.50;58.70;;;;;;5044733;28;20469;-13
2022/09/30 09:30:22;;;;;;;0.50;0.50;;;19.50;58.70;;;;;;5029371;28;20049;-13
2022/09/30 09:32:55;;;;;;;0.88;0.63;;;19.40;58.70;;;;;;5004425;28;20033;-14
2022/09/30 09:35:39;;;;;;;0.68;0.68;;;19.50;58.80;;;;;;5018644;28;20144;-13
2022/09/30 09:38:25;;;;;;;0.50;0.50;;;19.50;58.80;;;;;;5020454;28;20038;-14
2022/09/30 09:41:18;;;;;;;0.47;0.45;;;19.60;58.90;;;;;;5013723;28;20071;-14
2022/09/30 09:43:44;;;;;;;0.75;0.52;;;19.60;58.60;;;;;;5037788;28;20095;-14
2022/09/30 09:46:29;;;;;;;0.30;0.30;;;19.60;58.70;;;;;;5034686;28;20130;-14
2022/09/30 09:49:22;;;;;;;0.40;0.40;;;19.60;58.80;;;;;;5017178;28;20038;-15
2022/09/30 09:52:13;;;;;;;1.13;0.40;;;19.60;58.80;;;;;;5016588;28;20147;-14
2022/09/30 09:54:47;;;;;;;1.00;0.50;;;19.60;58.90;;;;;;5035747;28;20581;-13
2022/09/30 09:57:17;;;;;;;0.75;0.60;;;19.60;59.00;;;;;;5016502;28;20061;-14
2022/09/30 10:03:20;;;;;;;0.60;0.50;;;19.70;59.00;;;;;;5019184;28;20127;-13
2022/09/30 10:06:08;;;;;;;0.47;0.30;;;19.60;59.20;;;;;;5043953;28;20036;-16
2022/09/30 10:08:53;;;;;;;0.63;0.30;;;19.70;59.10;;;;;;5061265;28;20053;-14
2022/09/30 10:11:21;;;;;;;0.40;0.38;;;19.60;59.10;;;;;;5065643;28;20040;-14
2022/09/30 10:13:46;;;;;;;0.30;0.20;;;19.70;58.90;;;;;;5055126;28;20061;-13
2022/09/30 10:16:34;;;;;;;0.35;0.22;;;19.70;58.90;;;;;;5035940;28;20071;-14
2022/09/30 10:19:00;;;;;;;0.32;0.30;;;19.80;59.00;;;;;;5062867;28;20062;-15
2022/09/30 10:21:27;;;;;;;0.50;0.47;;;19.70;58.90;;;;;;5064509;28;20028;-20
2022/09/30 10:23:53;;;;;;;0.68;0.52;;;19.70;58.90;;;;;;5055090;28;20467;-13
2022/09/30 10:26:20;;;;;;;0.20;0.20;;;19.70;58.90;;;;;;5045951;28;20060;-14
2022/09/30 10:28:55;;;;;;;0.20;0.20;;;19.80;59.60;;;;;;5049993;28;20072;-14
2022/09/30 10:31:22;;;;;;;1.65;0.30;;;19.80;59.00;;;;;;5073149;28;20132;-14
2022/09/30 10:33:52;;;;;;;0.52;0.32;;;19.80;59.10;;;;;;5061157;28;20478;-14
2022/09/30 10:36:18;;;;;;;0.38;0.32;;;19.80;59.10;;;;;;5064865;28;20033;-13
2022/09/30 10:38:56;;;;;;;0.73;0.43;;;19.90;59.10;;;;;;5064261;28;20041;-17
2022/09/30 10:41:29;;;;;;;0.75;0.60;;;19.80;59.10;;;;;;5039512;28;20049;-14
2022/09/30 10:43:56;;;;;;;0.47;0.40;;;19.90;59.10;;;;;;5028565;28;20080;-14
2022/09/30 10:46:24;;;;;;;0.38;0.38;;;19.90;59.10;;;;;;5063712;28;20506;-14
2022/09/30 10:48:50;;;;;;;0.20;0.20;;;19.90;59.10;;;;;;5046466;28;20080;-14
2022/09/30 10:51:35;;;;;;;0.45;0.20;;;19.90;59.80;;;;;;5047933;28;20106;-13
2022/09/30 10:54:03;;;;;;;0.60;0.32;;;19.90;59.10;;;;;;5061562;28;20090;-14
2022/09/30 10:56:46;;;;;;;0.40;0.40;;;19.90;59.10;;;;;;5061298;28;20073;-15
2022/09/30 10:59:23;;;;;;;0.57;0.30;;;19.90;59.10;;;;;;5058223;28;20131;-14
2022/09/30 11:01:53;;;;;;;0.30;0.20;;;19.90;59.10;;;;;;5049401;28;20415;-21
2022/09/30 11:04:40;;;;;;;0.22;0.20;;;19.90;59.10;;;;;;5046577;28;20514;-13
2022/09/30 11:07:26;;;;;;;0.20;0.20;;;19.90;59.20;;;;;;5043835;28;20052;-20
2022/09/30 11:09:57;;;;;;;0.30;0.20;;;19.90;59.10;;;;;;5057881;28;21402;-14
2022/09/30 11:12:52;;;;;;;0.20;0.10;;;19.90;59.10;;;;;;5046182;28;20045;-13
2022/09/30 11:15:31;;;;;;;0.30;0.30;;;19.90;59.10;;;;;;4995891;28;20556;-14
2022/09/30 11:18:04;;;;;;;0.20;0.20;;;19.90;59.20;;;;;;4967007;28;20150;-14
2022/09/30 11:20:31;;;;;;;0.10;0.10;;;19.90;59.10;;;;;;5004368;28;20042;-20
2022/09/30 11:23:21;;;;;;;0.35;0.20;;;19.90;59.10;;;;;;4978936;28;20050;-14
2022/09/30 11:26:00;;;;;;;0.40;0.40;;;20.00;59.60;;;;;;4981395;28;20583;-14
2022/09/30 11:28:26;;;;;;;0.20;0.20;;;20.00;59.70;;;;;;4985579;28;20050;-14
2022/09/30 11:30:58;;;;;;;0.20;0.20;;;20.00;59.40;;;;;;4989912;28;20108;-13
2022/09/30 11:34:03;;;;;;;0.30;0.30;;;20.00;59.50;;;;;;4960889;28;20069;-30
2022/09/30 11:36:47;;;;;;;0.40;0.40;;;20.00;60.50;;;;;;4939259;28;20054;-13
2022/09/30 11:39:51;;;;;;;0.20;0.20;;;20.00;59.90;;;;;;4930845;28;20146;-19
2022/09/30 11:42:32;;;;;;;0.13;0.13;;;20.00;59.80;;;;;;4935760;28;20498;-14
2022/09/30 11:45:12;;;;;;;0.90;0.40;;;20.00;59.90;;;;;;4933749;28;20051;-19
2022/09/30 11:47:44;;;;;;;1.48;0.30;;;20.00;59.90;;;;;;4583318;28;10000148;-18
2022/09/30 11:50:49;;;;;;;0.30;0.20;;;20.00;59.90;;;;;;4944339;28;20054;-14
2022/09/30 11:53:32;;;;;;;0.20;0.20;;;20.00;60.00;;;;;;4960356;28;20066;-14
2022/09/30 11:56:00;;;;;;;0.30;0.30;;;20.10;60.20;;;;;;4978492;28;20042;-13
2022/09/30 11:58:30;;;;;;;0.68;0.13;;;20.00;60.10;;;;;;4978460;28;20521;-14
2022/09/30 12:01:11;;;;;;;1.65;0.40;;;20.00;60.10;;;;;;4949292;28;20048;-14
2022/09/30 12:03:42;;;;;;;1.08;0.25;;;20.10;60.30;;;;;;4949241;28;20643;-15
2022/09/30 12:06:28;;;;;;;0.60;0.50;;;20.10;60.40;;;;;;4947247;28;20172;-13
2022/09/30 12:08:58;;;;;;;0.40;0.22;;;20.10;61.80;;;;;;4946985;28;20050;-14
2022/09/30 12:11:50;;;;;;;0.43;0.43;;;20.10;60.70;;;;;;5027997;28;20491;-14
2022/09/30 12:14:21;;;;;;;0.95;0.30;;;20.10;60.60;;;;;;5031072;28;20030;-15
2022/09/30 12:16:47;;;;;;;0.30;0.30;;;20.10;60.70;;;;;;5032215;28;20037;-14
2022/09/30 12:19:15;;;;;;;0.50;0.30;;;20.10;60.70;;;;;;5048607;28;20025;-14
2022/09/30 12:22:04;;;;;;;0.32;0.30;;;20.10;60.60;;;;;;5066140;28;20039;-14
2022/09/30 12:24:35;;;;;;;0.30;0.28;;;20.10;60.70;;;;;;5045383;28;20123;-14
2022/09/30 12:27:01;;;;;;;0.68;0.28;;;20.10;60.90;;;;;;5039324;28;20095;-14
2022/09/30 12:32:34;;;;;;;0.40;0.40;;;20.10;60.70;;;;;;5041444;28;20083;-46
2022/09/30 12:35:29;;;;;;;0.30;0.28;;;20.20;60.90;;;;;;5057669;28;20775;-45
2022/09/30 12:38:03;;;;;;;;;;;20.20;60.90;;;;;;5031573;28;20041;-46
2022/09/30 12:40:56;;;;;;;0.30;0.30;;;20.20;60.70;;;;;;5034229;28;19920;-46
2022/09/30 12:43:43;;;;;;;0.35;0.20;;;20.20;60.80;;;;;;5038270;28;20032;-45
2022/09/30 12:46:15;;;;;;;0.40;0.22;;;20.20;60.80;;;;;;5055984;28;20147;-46
2022/09/30 12:48:50;;;;;;;0.35;0.30;;;20.20;60.80;;;;;;5040236;28;20123;-46
2022/09/30 12:51:25;;;;;;;0.30;0.30;;;20.20;60.70;;;;;;5050982;28;20587;-46
2022/09/30 12:53:55;;;;;;;0.30;0.30;;;20.20;61.50;;;;;;5059134;28;20051;-45
2022/09/30 12:56:21;;;;;;;0.30;0.20;;;20.20;60.70;;;;;;5061354;28;20071;-46
2022/09/30 12:58:48;;;;;;;0.30;0.20;;;20.20;61.00;;;;;;5040300;28;20056;-46
2022/09/30 13:01:35;;;;;;;0.40;0.20;;;20.20;60.60;;;;;;5061355;28;20036;-46
2022/09/30 13:04:00;;;;;;;0.80;0.28;;;20.20;60.60;;;;;;5071268;28;20482;-46
2022/09/30 13:06:27;;;;;;;0.25;0.25;;;20.20;60.50;;;;;;5042215;28;20098;-46
2022/09/30 13:08:56;;;;;;;0.30;0.30;;;20.20;60.50;;;;;;5047553;28;20067;-47
2022/09/30 13:11:35;;;;;;;0.50;0.30;;;20.20;60.60;;;;;;5040371;28;20049;-45
2022/09/30 13:14:18;;;;;;;0.40;0.40;;;20.20;60.50;;;;;;5059697;28;20071;-45
2022/09/30 13:17:01;;;;;;;1.10;0.30;;;20.20;60.40;;;;;;5050754;28;20104;-45
2022/09/30 13:19:35;;;;;;;0.22;0.20;;;20.20;60.50;;;;;;5051480;28;20033;-45
2022/09/30 13:24:57;;;;;;;0.40;0.20;;;20.20;60.40;;;;;;5061471;28;20071;-45